Time;durP1;ratioP1;P1;durP2;ratioP2;P2;SDS_P1;SDS_P2;PMS_P1;PMS_P2;Temp;Humidity;BMP_temperature;BMP_pressure;BME280_temperature;BME280_humidity;BME280_pressure;Samples;Min_cycle;Max_cycle;Signal;HPM_P1;HPM_P2
2021/12/03 00:01:26;;;;;;;23.67;7.10;;;1.50;99.90;;;;;;5140146;27;20270;-71
2021/12/03 00:03:55;;;;;;;15.97;7.33;;;1.60;99.90;;;;;;5126230;27;20257;-70
2021/12/03 00:06:25;;;;;;;18.73;7.23;;;1.60;99.90;;;;;;5127777;27;20272;-70
2021/12/03 00:08:54;;;;;;;14.67;7.17;;;1.60;99.90;;;;;;5131164;27;20280;-72
2021/12/03 00:11:22;;;;;;;18.23;7.37;;;1.60;99.90;;;;;;5144902;27;20675;-70
2021/12/03 00:13:53;;;;;;;14.00;6.30;;;1.60;99.90;;;;;;5141119;27;20593;-69
2021/12/03 00:16:24;;;;;;;13.10;6.83;;;1.60;99.90;;;;;;5149571;27;20687;-70
2021/12/03 00:18:53;;;;;;;17.93;7.40;;;1.50;99.90;;;;;;5143866;27;20194;-70
2021/12/03 00:21:22;;;;;;;22.13;8.37;;;1.60;99.90;;;;;;5142227;27;20894;-69
2021/12/03 00:23:52;;;;;;;20.07;7.40;;;1.60;99.90;;;;;;5138799;27;20564;-70
2021/12/03 00:26:21;;;;;;;14.00;7.23;;;1.60;99.90;;;;;;5148550;27;20189;-69
2021/12/03 00:28:50;;;;;;;18.43;7.87;;;1.70;99.90;;;;;;5146207;27;20209;-70
2021/12/03 00:31:18;;;;;;;23.30;8.13;;;1.70;99.90;;;;;;5146291;27;20276;-72
2021/12/03 00:33:49;;;;;;;20.63;8.33;;;1.80;99.90;;;;;;5128735;27;20598;-70
2021/12/03 00:36:18;;;;;;;20.33;8.10;;;1.80;99.90;;;;;;5128041;27;20261;-71
2021/12/03 00:38:51;;;;;;;18.77;8.07;;;1.80;99.90;;;;;;5143423;27;20286;-70
2021/12/03 00:41:22;;;;;;;22.17;9.03;;;1.90;99.90;;;;;;5145391;27;20855;-70
2021/12/03 00:43:52;;;;;;;22.37;8.73;;;1.90;99.90;;;;;;5154985;27;20250;-70
2021/12/03 00:46:22;;;;;;;26.63;8.80;;;1.90;99.90;;;;;;5116869;27;20273;-70
2021/12/03 00:48:54;;;;;;;21.67;9.00;;;2.00;99.90;;;;;;5149058;27;20254;-69
2021/12/03 00:51:24;;;;;;;20.87;8.83;;;2.10;99.90;;;;;;5123301;27;20561;-70
2021/12/03 00:53:53;;;;;;;22.23;9.23;;;2.10;99.90;;;;;;5126934;27;20601;-72
2021/12/03 00:56:24;;;;;;;19.43;8.77;;;2.10;99.90;;;;;;5119690;27;20247;-70
2021/12/03 00:58:53;;;;;;;20.13;9.10;;;2.10;99.90;;;;;;5145125;27;20201;-70
2021/12/03 01:01:21;;;;;;;25.80;9.97;;;2.10;99.90;;;;;;5140391;27;20210;-70
2021/12/03 01:03:51;;;;;;;29.20;9.40;;;2.20;99.90;;;;;;5132036;27;20221;-70
2021/12/03 01:06:20;;;;;;;23.80;9.00;;;2.20;99.90;;;;;;5148786;27;20271;-69
2021/12/03 01:08:48;;;;;;;24.20;9.53;;;2.10;99.90;;;;;;5110810;27;20185;-70
2021/12/03 01:11:17;;;;;;;32.83;9.37;;;2.10;99.90;;;;;;5127070;27;20291;-69
2021/12/03 01:13:48;;;;;;;32.70;9.03;;;2.10;99.90;;;;;;5143829;27;20198;-71
2021/12/03 01:16:17;;;;;;;21.60;9.00;;;2.10;99.90;;;;;;5147595;27;20254;-69
2021/12/03 01:18:46;;;;;;;25.40;9.37;;;2.00;99.90;;;;;;5111913;27;20200;-69
2021/12/03 01:21:15;;;;;;;31.70;9.53;;;2.00;99.90;;;;;;5145759;27;20201;-70
2021/12/03 01:23:44;;;;;;;28.23;8.77;;;2.00;99.90;;;;;;5159435;27;20206;-70
2021/12/03 01:26:13;;;;;;;28.80;8.30;;;2.00;99.90;;;;;;5131769;27;20226;-72
2021/12/03 01:28:41;;;;;;;25.80;7.97;;;1.90;99.90;;;;;;5122185;27;20201;-73
2021/12/03 01:31:12;;;;;;;24.97;8.07;;;2.00;99.90;;;;;;5128099;27;20202;-72
2021/12/03 01:33:41;;;;;;;23.83;7.67;;;1.90;99.90;;;;;;5145873;27;20197;-73
2021/12/03 01:36:10;;;;;;;29.17;7.87;;;1.90;99.90;;;;;;5148525;27;20201;-73
2021/12/03 01:38:38;;;;;;;29.23;7.60;;;1.80;99.90;;;;;;5133130;27;20261;-72
2021/12/03 01:41:07;;;;;;;25.33;8.20;;;1.90;99.90;;;;;;5149683;27;20793;-70
2021/12/03 01:43:35;;;;;;;26.70;7.20;;;1.80;99.90;;;;;;5146509;27;20264;-71
2021/12/03 01:46:06;;;;;;;27.73;7.10;;;1.70;99.90;;;;;;5161692;27;20274;-72
2021/12/03 01:48:37;;;;;;;21.40;6.90;;;1.70;99.90;;;;;;5148378;27;20193;-72
2021/12/03 01:51:07;;;;;;;28.50;7.60;;;1.70;99.90;;;;;;5128422;27;20288;-72
2021/12/03 01:53:40;;;;;;;23.77;7.30;;;1.70;99.90;;;;;;5140699;27;20231;-71
2021/12/03 01:56:11;;;;;;;26.53;6.93;;;1.60;99.90;;;;;;5132758;27;20242;-72
2021/12/03 01:58:41;;;;;;;24.60;8.33;;;1.60;99.90;;;;;;5131215;27;20193;-71
2021/12/03 02:01:11;;;;;;;22.07;6.40;;;1.60;99.90;;;;;;5140176;27;20198;-72
2021/12/03 02:03:44;;;;;;;27.07;6.93;;;1.60;99.90;;;;;;5123916;27;20220;-72
2021/12/03 02:06:14;;;;;;;21.73;7.63;;;1.60;99.90;;;;;;5126964;27;20204;-72
2021/12/03 02:08:43;;;;;;;17.10;5.90;;;1.50;99.90;;;;;;5146213;27;20201;-72
2021/12/03 02:11:13;;;;;;;22.93;6.30;;;1.50;99.90;;;;;;5146043;27;20651;-71
2021/12/03 02:13:42;;;;;;;23.17;7.00;;;1.50;99.90;;;;;;5131050;27;20266;-71
2021/12/03 02:16:12;;;;;;;21.40;6.60;;;1.50;99.90;;;;;;5146118;27;20651;-71
2021/12/03 02:18:43;;;;;;;18.07;6.73;;;1.50;99.90;;;;;;5146072;27;20197;-72
2021/12/03 02:21:16;;;;;;;27.13;6.37;;;1.50;99.90;;;;;;5144265;27;20198;-71
2021/12/03 02:23:45;;;;;;;25.10;6.73;;;1.50;99.90;;;;;;5146975;27;20668;-71
2021/12/03 02:26:15;;;;;;;25.93;6.33;;;1.50;99.90;;;;;;5144860;27;20196;-71
2021/12/03 02:28:46;;;;;;;25.37;6.10;;;1.50;99.90;;;;;;5148777;27;20193;-72
2021/12/03 02:31:17;;;;;;;38.77;7.00;;;1.50;99.90;;;;;;5128257;27;20623;-72
2021/12/03 02:33:46;;;;;;;25.23;6.97;;;1.50;99.90;;;;;;5133670;27;20200;-71
2021/12/03 02:36:16;;;;;;;21.73;6.43;;;1.50;99.90;;;;;;5147803;27;20275;-71
2021/12/03 02:38:45;;;;;;;24.03;6.33;;;1.40;99.90;;;;;;5140096;27;20212;-71
2021/12/03 02:41:15;;;;;;;27.20;7.13;;;1.40;99.90;;;;;;5150313;27;20648;-71
2021/12/03 02:43:44;;;;;;;23.30;7.20;;;1.30;99.90;;;;;;5143054;27;20213;-71
2021/12/03 02:46:13;;;;;;;22.80;6.30;;;1.30;99.90;;;;;;5148355;27;20311;-71
2021/12/03 02:48:41;;;;;;;25.80;6.63;;;1.30;99.90;;;;;;5149463;27;20205;-72
2021/12/03 02:51:10;;;;;;;17.53;5.83;;;1.30;99.90;;;;;;5126982;27;20250;-71
2021/12/03 02:53:41;;;;;;;26.77;6.93;;;1.30;99.90;;;;;;5145759;27;20221;-71
2021/12/03 02:56:10;;;;;;;24.80;7.00;;;1.30;99.90;;;;;;5144434;27;20260;-71
2021/12/03 02:58:38;;;;;;;18.77;6.07;;;1.30;99.90;;;;;;5142814;27;20194;-71
2021/12/03 03:01:09;;;;;;;24.83;7.07;;;1.30;99.90;;;;;;5144173;27;20197;-71
2021/12/03 03:03:38;;;;;;;30.33;6.37;;;1.20;99.90;;;;;;5128878;27;20618;-71
2021/12/03 03:06:08;;;;;;;33.10;7.57;;;1.20;99.90;;;;;;5143731;27;20194;-71
2021/12/03 03:08:40;;;;;;;25.07;6.67;;;1.20;99.90;;;;;;5148542;27;20655;-71
2021/12/03 03:11:12;;;;;;;20.87;6.30;;;1.20;99.90;;;;;;5147270;27;20227;-72
2021/12/03 03:13:41;;;;;;;26.27;7.17;;;1.20;99.90;;;;;;5144796;27;20730;-71
2021/12/03 03:16:09;;;;;;;23.00;6.03;;;1.20;99.90;;;;;;5146711;27;20280;-71
2021/12/03 03:18:38;;;;;;;18.53;5.60;;;1.20;99.90;;;;;;5146812;27;20201;-71
2021/12/03 03:21:07;;;;;;;20.90;5.67;;;1.20;99.90;;;;;;5143879;27;20648;-70
2021/12/03 03:23:36;;;;;;;17.23;5.60;;;1.20;99.90;;;;;;5142437;27;20214;-71
2021/12/03 03:26:07;;;;;;;14.67;5.80;;;1.10;99.90;;;;;;5147278;27;20282;-71
2021/12/03 03:28:39;;;;;;;23.43;5.87;;;1.10;99.90;;;;;;5141790;27;20194;-71
2021/12/03 03:31:10;;;;;;;26.53;5.90;;;1.10;99.90;;;;;;5145611;27;20181;-71
2021/12/03 03:33:39;;;;;;;21.33;6.20;;;1.10;99.90;;;;;;5130562;27;20215;-71
2021/12/03 03:36:07;;;;;;;22.90;5.83;;;1.00;99.90;;;;;;5144179;27;20778;-71
2021/12/03 03:38:36;;;;;;;21.27;6.23;;;1.10;99.90;;;;;;5146321;27;20537;-71
2021/12/03 03:41:05;;;;;;;13.70;5.53;;;1.10;99.90;;;;;;5142287;27;20592;-71
2021/12/03 03:43:33;;;;;;;20.10;5.20;;;1.10;99.90;;;;;;5142499;27;20605;-71
2021/12/03 03:46:03;;;;;;;21.50;5.70;;;1.10;99.90;;;;;;5128160;27;20297;-71
2021/12/03 03:48:32;;;;;;;26.37;6.27;;;1.10;99.90;;;;;;5139896;27;20711;-71
2021/12/03 03:51:01;;;;;;;17.37;6.20;;;1.10;99.90;;;;;;5141433;27;20202;-71
2021/12/03 03:53:29;;;;;;;24.57;6.20;;;1.00;99.90;;;;;;5146064;27;20789;-71
2021/12/03 03:55:58;;;;;;;20.50;6.80;;;1.10;99.90;;;;;;5146127;27;20242;-70
2021/12/03 03:58:26;;;;;;;22.23;6.10;;;1.10;99.90;;;;;;5143013;27;20193;-71
2021/12/03 04:00:55;;;;;;;24.87;6.37;;;1.00;99.90;;;;;;5147958;27;20194;-70
2021/12/03 04:03:30;;;;;;;16.23;5.67;;;1.00;99.90;;;;;;5148708;27;20247;-71
2021/12/03 04:05:59;;;;;;;24.90;6.40;;;1.00;99.90;;;;;;5144777;27;20289;-71
2021/12/03 04:08:29;;;;;;;26.93;5.43;;;1.00;99.90;;;;;;5140255;27;20197;-70
2021/12/03 04:10:58;;;;;;;22.03;5.97;;;1.10;99.90;;;;;;5143128;27;20185;-70
2021/12/03 04:13:27;;;;;;;18.97;4.93;;;1.10;99.90;;;;;;5147379;27;20298;-71
2021/12/03 04:15:55;;;;;;;18.80;5.53;;;1.10;99.90;;;;;;5158737;27;20612;-70
2021/12/03 04:18:25;;;;;;;20.57;5.13;;;1.10;99.90;;;;;;5147556;27;20197;-70
2021/12/03 04:20:54;;;;;;;18.37;5.03;;;1.10;99.90;;;;;;5140730;27;20367;-71
2021/12/03 04:23:22;;;;;;;19.17;4.97;;;1.10;99.90;;;;;;5120282;27;20270;-70
2021/12/03 04:25:51;;;;;;;17.87;4.40;;;1.00;99.90;;;;;;5136787;27;20213;-71
2021/12/03 04:28:21;;;;;;;16.80;5.30;;;1.00;99.90;;;;;;5144221;27;20207;-71
2021/12/03 04:30:52;;;;;;;14.07;4.90;;;0.90;99.90;;;;;;5139963;27;20273;-70
2021/12/03 04:33:21;;;;;;;14.83;4.57;;;0.90;99.90;;;;;;5142983;27;20190;-70
2021/12/03 04:35:51;;;;;;;22.43;5.03;;;0.90;99.90;;;;;;5136952;27;20246;-71
2021/12/03 04:38:19;;;;;;;15.70;4.93;;;0.90;99.90;;;;;;5144591;27;20285;-70
2021/12/03 04:40:48;;;;;;;21.97;5.17;;;0.90;99.90;;;;;;5156140;27;20242;-71
2021/12/03 04:43:17;;;;;;;18.67;5.43;;;0.80;99.90;;;;;;5149247;27;20619;-71
2021/12/03 04:45:45;;;;;;;18.53;4.60;;;0.80;99.90;;;;;;5163369;27;20761;-70
2021/12/03 04:48:17;;;;;;;20.13;4.33;;;0.80;99.90;;;;;;5147067;27;20520;-70
2021/12/03 04:50:47;;;;;;;20.73;4.93;;;0.80;99.90;;;;;;5128571;27;20275;-70
2021/12/03 04:53:19;;;;;;;29.73;5.80;;;0.80;99.90;;;;;;5113799;27;20209;-70
2021/12/03 04:55:50;;;;;;;22.07;5.40;;;0.80;99.90;;;;;;5146129;27;20682;-70
2021/12/03 04:58:19;;;;;;;24.87;5.20;;;0.70;99.90;;;;;;5132245;27;20217;-70
2021/12/03 05:00:53;;;;;;;21.20;6.50;;;0.70;99.90;;;;;;5147479;27;20182;-70
2021/12/03 05:03:24;;;;;;;18.23;5.93;;;0.70;99.90;;;;;;5128766;27;20186;-69
2021/12/03 05:05:54;;;;;;;17.33;5.83;;;0.70;99.90;;;;;;5109880;27;20194;-70
2021/12/03 05:08:25;;;;;;;20.03;7.33;;;0.70;99.90;;;;;;5136300;27;20730;-70
2021/12/03 05:10:54;;;;;;;23.33;7.60;;;0.80;99.90;;;;;;5128634;27;20294;-70
2021/12/03 05:13:27;;;;;;;34.80;8.87;;;0.80;99.90;;;;;;5149829;27;20679;-70
2021/12/03 05:15:56;;;;;;;25.07;8.80;;;0.80;99.90;;;;;;5146778;27;20687;-70
2021/12/03 05:18:27;;;;;;;28.43;9.17;;;0.90;99.90;;;;;;5145265;27;20552;-70
2021/12/03 05:20:59;;;;;;;27.93;9.30;;;0.90;99.90;;;;;;5147614;27;20260;-70
2021/12/03 05:23:30;;;;;;;29.30;9.43;;;1.00;99.90;;;;;;5147470;27;20229;-70
2021/12/03 05:25:59;;;;;;;23.67;8.97;;;1.00;99.90;;;;;;5148692;27;20287;-70
2021/12/03 05:28:29;;;;;;;28.47;10.00;;;1.00;99.90;;;;;;5145166;27;20932;-70
2021/12/03 05:30:59;;;;;;;22.23;8.93;;;1.10;99.90;;;;;;5149269;27;20199;-70
2021/12/03 05:33:28;;;;;;;37.77;9.10;;;1.10;99.90;;;;;;5154808;27;20186;-70
2021/12/03 05:35:56;;;;;;;20.33;8.13;;;1.10;99.90;;;;;;5150621;27;20723;-70
2021/12/03 05:38:25;;;;;;;33.50;9.00;;;1.00;99.90;;;;;;5147998;27;20185;-70
2021/12/03 05:40:56;;;;;;;26.27;8.07;;;1.10;99.90;;;;;;5152652;27;20189;-70
2021/12/03 05:43:24;;;;;;;34.13;8.30;;;1.10;99.90;;;;;;5162189;27;20247;-69
2021/12/03 05:45:53;;;;;;;33.43;7.77;;;1.20;99.90;;;;;;5145763;27;20213;-70
2021/12/03 05:48:21;;;;;;;30.53;8.70;;;1.20;99.90;;;;;;5151893;27;20688;-70
2021/12/03 05:50:51;;;;;;;27.03;7.70;;;1.20;99.90;;;;;;5143919;27;20242;-70
2021/12/03 05:53:19;;;;;;;26.77;7.93;;;1.30;99.90;;;;;;5146983;27;20221;-70
2021/12/03 05:55:48;;;;;;;46.93;8.70;;;1.30;99.90;;;;;;5133180;27;20227;-69
2021/12/03 05:58:18;;;;;;;22.53;7.10;;;1.30;99.90;;;;;;5134212;27;20387;-69
2021/12/03 06:00:48;;;;;;;23.73;6.23;;;1.30;99.90;;;;;;5146383;27;20226;-70
2021/12/03 06:03:23;;;;;;;26.60;6.50;;;1.30;99.90;;;;;;5145295;27;20231;-70
2021/12/03 06:05:52;;;;;;;25.57;6.77;;;1.30;99.90;;;;;;5163521;27;20209;-70
2021/12/03 06:08:21;;;;;;;22.90;6.47;;;1.40;99.90;;;;;;5147764;27;20258;-69
2021/12/03 06:10:50;;;;;;;25.03;6.60;;;1.30;99.90;;;;;;5148234;27;20209;-70
2021/12/03 06:13:20;;;;;;;20.63;5.90;;;1.40;99.90;;;;;;5147104;27;20193;-70
2021/12/03 06:15:49;;;;;;;16.43;5.57;;;1.40;99.90;;;;;;5143691;27;20189;-70
2021/12/03 06:18:18;;;;;;;19.87;5.67;;;1.40;99.90;;;;;;5149787;27;20197;-70
2021/12/03 06:20:47;;;;;;;17.73;4.97;;;1.50;99.90;;;;;;5141199;27;20190;-69
2021/12/03 06:23:17;;;;;;;15.90;5.00;;;1.50;99.90;;;;;;5147144;27;20201;-70
2021/12/03 06:25:46;;;;;;;18.00;5.90;;;1.50;99.90;;;;;;5124296;27;20268;-70
2021/12/03 06:28:15;;;;;;;21.03;5.83;;;1.50;99.90;;;;;;5134949;27;20202;-69
2021/12/03 06:30:45;;;;;;;22.20;5.33;;;1.50;99.90;;;;;;5143121;27;20186;-70
2021/12/03 06:33:14;;;;;;;13.63;5.20;;;1.50;99.90;;;;;;5143753;27;20185;-69
2021/12/03 06:35:45;;;;;;;19.00;5.20;;;1.60;99.90;;;;;;5146504;27;20191;-70
2021/12/03 06:38:14;;;;;;;19.60;5.33;;;1.60;99.90;;;;;;5159794;27;20186;-70
2021/12/03 06:40:43;;;;;;;17.07;5.33;;;1.60;99.90;;;;;;5146157;27;20671;-70
2021/12/03 06:43:12;;;;;;;14.10;4.97;;;1.60;99.90;;;;;;5144806;27;20227;-70
2021/12/03 06:45:41;;;;;;;17.40;5.70;;;1.60;99.90;;;;;;5129017;27;20213;-70
2021/12/03 06:48:13;;;;;;;15.90;5.13;;;1.60;99.90;;;;;;5142601;27;20665;-70
2021/12/03 06:50:43;;;;;;;22.90;6.30;;;1.60;99.90;;;;;;5146396;27;20673;-70
2021/12/03 06:53:14;;;;;;;22.87;5.90;;;1.70;99.90;;;;;;5147634;27;20213;-70
2021/12/03 06:55:46;;;;;;;23.50;6.10;;;1.70;99.90;;;;;;5149230;27;20226;-69
2021/12/03 06:58:17;;;;;;;19.97;4.93;;;1.70;99.90;;;;;;5142692;27;20571;-70
2021/12/03 07:00:52;;;;;;;19.63;5.00;;;1.70;99.90;;;;;;5143755;27;20250;-70
2021/12/03 07:03:23;;;;;;;13.53;6.07;;;1.70;99.90;;;;;;5154067;27;20354;-71
2021/12/03 07:05:52;;;;;;;23.60;5.93;;;1.70;99.90;;;;;;5156811;27;20217;-70
2021/12/03 07:08:20;;;;;;;16.50;5.23;;;1.70;99.90;;;;;;5131775;27;20186;-70
2021/12/03 07:10:49;;;;;;;15.87;5.30;;;1.70;99.90;;;;;;5127330;27;20194;-70
2021/12/03 07:13:20;;;;;;;18.00;5.90;;;1.80;99.90;;;;;;5148373;27;20197;-70
2021/12/03 07:15:49;;;;;;;18.43;5.80;;;1.80;99.90;;;;;;5150718;27;20659;-70
2021/12/03 07:18:18;;;;;;;19.57;5.97;;;1.80;99.90;;;;;;5151693;27;20189;-70
2021/12/03 07:20:48;;;;;;;16.77;5.93;;;1.80;99.90;;;;;;5151760;27;20201;-70
2021/12/03 07:23:16;;;;;;;16.47;5.90;;;1.90;99.90;;;;;;5151228;27;20212;-70
2021/12/03 07:25:45;;;;;;;23.87;6.03;;;1.90;99.90;;;;;;5132677;27;20213;-71
2021/12/03 07:28:15;;;;;;;20.63;5.77;;;1.90;99.90;;;;;;5150591;27;20526;-70
2021/12/03 07:30:44;;;;;;;23.67;5.93;;;1.90;99.90;;;;;;5127561;27;20246;-70
2021/12/03 07:33:16;;;;;;;22.47;5.73;;;1.90;99.90;;;;;;5138835;27;20270;-70
2021/12/03 07:35:45;;;;;;;18.37;6.47;;;1.90;99.90;;;;;;5131466;27;20219;-72
2021/12/03 07:38:18;;;;;;;14.27;5.37;;;1.90;99.90;;;;;;5152033;27;20184;-70
2021/12/03 07:40:47;;;;;;;23.13;7.77;;;2.00;99.90;;;;;;5135460;27;20234;-70
2021/12/03 07:43:17;;;;;;;26.57;11.50;;;2.10;99.90;;;;;;5143592;27;20818;-70
2021/12/03 07:45:46;;;;;;;22.83;11.07;;;2.10;99.90;;;;;;5139382;27;20209;-71
2021/12/03 07:48:15;;;;;;;19.93;7.47;;;2.10;99.90;;;;;;5139619;27;20206;-70
2021/12/03 07:50:44;;;;;;;23.53;10.23;;;2.10;99.90;;;;;;5140875;27;20331;-70
2021/12/03 07:53:16;;;;;;;25.73;10.10;;;2.10;99.90;;;;;;5125828;27;20194;-70
2021/12/03 07:55:47;;;;;;;20.53;8.23;;;2.10;99.90;;;;;;5146572;27;20189;-70
2021/12/03 07:58:15;;;;;;;13.07;5.43;;;2.20;99.90;;;;;;5133948;27;20695;-70
2021/12/03 08:00:45;;;;;;;20.00;4.93;;;2.20;99.90;;;;;;5122512;27;20322;-70
2021/12/03 08:03:17;;;;;;;15.20;5.10;;;2.30;99.90;;;;;;5141473;27;20788;-70
2021/12/03 08:05:46;;;;;;;20.47;5.30;;;2.30;99.90;;;;;;5154010;27;20239;-70
2021/12/03 08:08:21;;;;;;;24.47;6.50;;;2.30;99.90;;;;;;5153222;27;20189;-71
2021/12/03 08:10:53;;;;;;;25.53;6.30;;;2.30;99.90;;;;;;5144632;27;20210;-70
2021/12/03 08:13:22;;;;;;;19.13;5.53;;;2.30;99.90;;;;;;5129553;27;20655;-71
2021/12/03 08:15:50;;;;;;;18.33;5.53;;;2.40;99.90;;;;;;5144518;27;20185;-71
2021/12/03 08:18:20;;;;;;;16.47;5.83;;;2.40;99.90;;;;;;5152552;27;20246;-70
2021/12/03 08:20:49;;;;;;;16.07;6.17;;;2.40;99.90;;;;;;5148486;27;20198;-71
2021/12/03 08:23:18;;;;;;;21.53;8.17;;;2.50;99.90;;;;;;5149638;27;20193;-70
2021/12/03 08:25:47;;;;;;;17.00;5.60;;;2.50;99.90;;;;;;5128961;27;20621;-70
2021/12/03 08:28:17;;;;;;;25.53;10.37;;;2.50;99.90;;;;;;5147211;27;20333;-70
2021/12/03 08:30:46;;;;;;;18.37;6.63;;;2.60;99.90;;;;;;5148552;27;20619;-69
2021/12/03 08:33:17;;;;;;;39.90;15.87;;;2.70;99.90;;;;;;5152016;27;20190;-71
2021/12/03 08:35:46;;;;;;;39.87;16.33;;;2.70;99.90;;;;;;5149422;27;20587;-70
2021/12/03 08:38:14;;;;;;;69.10;28.13;;;2.80;99.90;;;;;;5137039;27;20570;-70
2021/12/03 08:41:04;;;;;;;86.60;29.30;;;2.90;99.90;;;;;;5125506;27;20311;-71
2021/12/03 08:43:34;;;;;;;22.80;8.30;;;2.90;99.90;;;;;;5131051;27;20574;-70
2021/12/03 08:46:09;;;;;;;26.70;12.33;;;2.90;99.90;;;;;;5128018;27;20575;-70
2021/12/03 08:48:41;;;;;;;21.50;5.80;;;2.90;99.90;;;;;;5125144;27;20257;-70
2021/12/03 08:51:23;;;;;;;18.20;5.60;;;3.00;99.90;;;;;;5143124;27;20197;-69
2021/12/03 08:56:37;;;;;;;32.23;17.20;;;3.10;99.90;;;;;;5141567;27;20427;-70
2021/12/03 08:59:07;;;;;;;55.10;26.90;;;3.10;99.90;;;;;;5157457;27;20722;-70
2021/12/03 09:01:36;;;;;;;13.93;5.90;;;3.20;99.90;;;;;;5124899;27;20643;-69
2021/12/03 09:04:06;;;;;;;16.17;6.70;;;3.20;99.90;;;;;;5128554;27;20204;-72
2021/12/03 09:06:37;;;;;;;25.53;6.30;;;3.30;99.90;;;;;;5148306;27;20212;-70
2021/12/03 09:09:07;;;;;;;14.93;4.90;;;3.40;99.90;;;;;;5146186;27;20212;-70
2021/12/03 09:11:36;;;;;;;16.13;6.63;;;3.40;99.90;;;;;;5144909;27;20197;-70
2021/12/03 09:14:14;;;;;;;14.97;5.90;;;3.50;99.90;;;;;;5141907;27;20685;-70
2021/12/03 09:16:44;;;;;;;14.93;5.47;;;3.50;99.90;;;;;;5148035;27;20190;-70
2021/12/03 09:19:21;;;;;;;15.17;5.90;;;3.50;99.90;;;;;;5133748;27;20193;-70
2021/12/03 09:21:50;;;;;;;19.40;5.40;;;3.50;99.90;;;;;;5146184;27;20342;-68
2021/12/03 09:24:22;;;;;;;11.80;4.60;;;3.60;99.90;;;;;;5154441;27;20205;-70
2021/12/03 09:26:51;;;;;;;10.00;5.57;;;3.60;99.90;;;;;;5152739;27;20769;-71
2021/12/03 09:29:28;;;;;;;12.73;5.43;;;3.60;99.90;;;;;;5161705;27;20205;-70
2021/12/03 09:31:58;;;;;;;10.63;6.20;;;3.60;99.90;;;;;;5145253;27;20739;-70
2021/12/03 09:34:28;;;;;;;8.30;5.03;;;3.70;99.90;;;;;;5155328;27;20253;-67
2021/12/03 09:36:57;;;;;;;10.47;5.43;;;3.80;99.90;;;;;;5134495;27;20189;-70
2021/12/03 09:39:26;;;;;;;20.60;5.00;;;3.70;99.90;;;;;;5143107;27;20729;-68
2021/12/03 09:41:57;;;;;;;19.27;5.67;;;3.80;99.90;;;;;;5144752;27;20181;-70
2021/12/03 09:44:30;;;;;;;10.10;4.70;;;3.70;99.90;;;;;;5150849;27;20604;-70
2021/12/03 09:47:00;;;;;;;5.53;4.87;;;3.80;99.90;;;;;;5150832;27;20225;-70
2021/12/03 09:49:34;;;;;;;13.77;5.50;;;3.90;99.90;;;;;;5155377;27;20192;-70
2021/12/03 09:52:11;;;;;;;16.97;5.53;;;3.90;99.90;;;;;;5148999;27;20667;-70
2021/12/03 09:54:42;;;;;;;10.97;5.23;;;3.90;99.90;;;;;;5150029;27;20194;-70
2021/12/03 09:57:13;;;;;;;14.83;4.77;;;3.90;99.90;;;;;;5141513;27;20272;-70
2021/12/03 10:03:10;;;;;;;10.70;5.93;;;3.90;99.90;;;;;;5146709;27;20650;-71
2021/12/03 10:17:41;;;;;;;11.77;4.57;;;4.20;99.90;;;;;;5106885;27;20235;-70
2021/12/03 10:20:21;;;;;;;14.43;6.03;;;4.30;99.90;;;;;;5133034;27;20289;-70
2021/12/03 10:35:33;;;;;;;8.93;4.60;;;4.40;99.90;;;;;;5088409;28;20194;-71
2021/12/03 10:44:02;;;;;;;12.83;3.77;;;4.50;99.90;;;;;;5154028;27;20193;-69
2021/12/03 10:46:52;;;;;;;15.70;6.13;;;4.50;99.90;;;;;;5144614;27;20833;-69
2021/12/03 10:49:36;;;;;;;13.50;5.53;;;4.50;99.90;;;;;;5156289;27;20193;-70
2021/12/03 10:52:24;;;;;;;9.63;4.97;;;4.50;99.90;;;;;;5134101;27;20189;-70
2021/12/03 13:08:34;;;;;;;9.20;5.80;;;4.00;99.90;;;;;;5026492;28;20692;-70
2021/12/03 14:02:27;;;;;;;7.30;4.90;;;4.00;99.90;;;;;;5060237;28;20200;-70
2021/12/03 14:52:04;;;;;;;4.80;4.40;;;4.00;99.90;;;;;;5066469;28;20291;-71
2021/12/03 14:54:47;;;;;;;4.93;4.57;;;4.00;99.90;;;;;;5092741;28;20199;-72
2021/12/03 14:57:29;;;;;;;4.77;4.37;;;4.00;99.90;;;;;;5085558;28;20191;-71
2021/12/03 15:00:10;;;;;;;4.73;4.43;;;4.00;99.90;;;;;;5080814;28;20208;-71
2021/12/03 15:08:33;;;;;;;4.40;4.10;;;4.00;99.90;;;;;;5147362;27;20571;-69
2021/12/03 15:22:59;;;;;;;4.97;4.67;;;4.00;99.90;;;;;;5167454;27;20194;-71
2021/12/03 15:25:35;;;;;;;5.60;5.17;;;4.00;99.90;;;;;;5130806;27;20189;-72
2021/12/03 15:30:59;;;;;;;4.23;3.93;;;4.00;99.90;;;;;;5134381;27;20209;-71
2021/12/03 15:33:37;;;;;;;4.00;3.80;;;4.00;99.90;;;;;;5133197;27;20205;-71
2021/12/03 15:36:12;;;;;;;4.83;4.53;;;4.00;99.90;;;;;;5125286;27;20197;-71
2021/12/03 15:58:27;;;;;;;28.90;20.00;;;4.00;99.90;;;;;;5132582;27;20192;-70
2021/12/03 16:06:33;;;;;;;5.30;4.90;;;4.00;99.90;;;;;;5138106;27;20603;-71
2021/12/03 16:11:55;;;;;;;4.60;4.33;;;4.00;99.90;;;;;;5124028;27;21176;-67
2021/12/03 16:20:21;;;;;;;8.37;7.60;;;4.00;99.90;;;;;;5120604;27;20675;-72
2021/12/03 16:23:14;;;;;;;7.30;6.70;;;4.00;99.90;;;;;;5119901;27;20190;-69
2021/12/03 16:26:04;;;;;;;6.10;5.60;;;4.00;99.90;;;;;;5121753;27;20837;-70
2021/12/03 16:53:32;;;;;;;6.70;6.20;;;4.00;99.90;;;;;;5106558;27;20603;-70
2021/12/03 16:56:17;;;;;;;8.80;7.70;;;4.10;99.90;;;;;;5117447;27;20709;-70
2021/12/03 16:58:46;;;;;;;8.40;7.27;;;4.10;99.90;;;;;;5117472;27;20190;-70
2021/12/03 17:01:21;;;;;;;11.17;7.60;;;4.00;99.90;;;;;;5117751;27;20206;-70
2021/12/03 17:03:56;;;;;;;6.67;6.17;;;4.00;99.90;;;;;;5118466;27;20190;-69
2021/12/03 17:09:24;;;;;;;7.10;6.40;;;4.10;99.90;;;;;;5097656;27;20560;-71
2021/12/03 17:26:51;;;;;;;7.47;6.87;;;4.00;99.90;;;;;;5112249;27;20213;-70
2021/12/03 17:48:46;;;;;;;5.20;4.90;;;4.10;99.90;;;;;;5119194;27;20947;-71
2021/12/03 17:51:38;;;;;;;5.40;5.10;;;4.10;99.90;;;;;;5118728;27;20194;-70
2021/12/03 17:54:31;;;;;;;6.33;5.73;;;4.10;99.90;;;;;;5123184;27;20247;-70
2021/12/03 17:57:07;;;;;;;5.70;5.30;;;4.10;99.90;;;;;;5123097;27;20206;-72
2021/12/03 17:59:40;;;;;;;6.13;5.63;;;4.20;99.90;;;;;;5126953;27;20242;-70
2021/12/03 18:02:16;;;;;;;6.20;5.70;;;4.10;99.90;;;;;;5121881;27;20808;-70
2021/12/03 18:05:34;;;;;;;6.50;6.00;;;4.10;99.90;;;;;;5118764;27;20553;-70
2021/12/03 18:08:12;;;;;;;6.17;5.60;;;4.10;99.90;;;;;;5122874;27;20222;-70
2021/12/03 18:11:04;;;;;;;6.90;6.30;;;4.10;99.90;;;;;;5123332;27;20208;-70
2021/12/03 18:14:01;;;;;;;6.60;6.10;;;4.20;99.90;;;;;;5120535;27;20198;-71
2021/12/03 18:17:01;;;;;;;6.80;6.20;;;4.20;99.90;;;;;;5127130;27;21320;-70
2021/12/03 18:45:17;;;;;;;8.47;7.47;;;4.30;99.90;;;;;;5117772;27;20274;-72
2021/12/03 18:56:05;;;;;;;9.13;8.23;;;4.40;99.90;;;;;;5046325;27;20204;-70
2021/12/03 18:58:34;;;;;;;9.07;7.17;;;4.40;99.90;;;;;;5119035;27;20191;-70
2021/12/03 19:01:06;;;;;;;8.27;7.40;;;4.40;99.90;;;;;;5125976;27;20210;-69
2021/12/03 19:03:49;;;;;;;10.53;7.57;;;4.40;99.90;;;;;;5122028;27;20665;-71
2021/12/03 19:06:22;;;;;;;9.17;8.23;;;4.40;99.90;;;;;;5123734;27;20233;-70
2021/12/03 19:08:51;;;;;;;9.37;7.63;;;4.30;99.90;;;;;;5120437;27;20266;-70
2021/12/03 19:11:23;;;;;;;11.13;8.87;;;4.30;99.90;;;;;;5116577;27;20255;-69
2021/12/03 19:13:52;;;;;;;10.10;8.77;;;4.30;99.90;;;;;;5121396;27;20273;-70
2021/12/03 19:16:25;;;;;;;14.60;10.23;;;4.40;99.90;;;;;;5115648;27;20281;-70
2021/12/03 19:18:57;;;;;;;13.23;10.07;;;4.40;99.90;;;;;;5119972;27;20190;-70
2021/12/03 19:21:27;;;;;;;17.77;10.77;;;4.40;99.90;;;;;;5120672;27;20189;-70
2021/12/03 19:23:59;;;;;;;13.80;9.03;;;4.40;99.90;;;;;;5120119;27;20186;-70
2021/12/03 19:26:31;;;;;;;9.13;8.17;;;4.40;99.90;;;;;;5153509;27;20672;-70
2021/12/03 19:29:01;;;;;;;13.23;8.60;;;4.40;99.90;;;;;;5115729;27;20214;-70
2021/12/03 19:31:31;;;;;;;9.80;7.90;;;4.40;99.90;;;;;;5115776;27;20263;-70
2021/12/03 19:34:00;;;;;;;8.57;7.70;;;4.40;99.90;;;;;;5120899;27;20198;-71
2021/12/03 19:36:32;;;;;;;9.10;7.60;;;4.40;99.90;;;;;;5116477;27;20255;-70
2021/12/03 19:39:01;;;;;;;8.33;7.53;;;4.40;99.90;;;;;;5110827;27;20198;-70
2021/12/03 19:41:35;;;;;;;8.90;8.00;;;4.50;99.90;;;;;;5114225;27;20256;-71
2021/12/03 19:44:08;;;;;;;12.53;8.63;;;4.40;99.90;;;;;;5112918;27;20231;-71
2021/12/03 19:46:42;;;;;;;10.57;9.07;;;4.40;99.90;;;;;;5124516;27;20233;-70
2021/12/03 19:49:16;;;;;;;29.53;17.70;;;4.40;99.90;;;;;;5113617;27;20229;-69
2021/12/03 19:51:48;;;;;;;9.83;8.73;;;4.40;99.90;;;;;;5147453;27;20194;-68
2021/12/03 19:54:20;;;;;;;11.60;9.17;;;4.40;99.90;;;;;;5115830;27;20206;-71
2021/12/03 19:56:52;;;;;;;10.03;8.87;;;4.40;99.90;;;;;;5114646;27;20280;-71
2021/12/03 19:59:21;;;;;;;12.30;9.53;;;4.40;99.90;;;;;;5122619;27;20278;-70
2021/12/03 20:01:51;;;;;;;10.17;8.77;;;4.40;99.90;;;;;;5120455;27;20226;-71
2021/12/03 20:04:20;;;;;;;10.27;8.27;;;4.40;99.90;;;;;;5109825;27;20198;-70
2021/12/03 20:06:48;;;;;;;9.23;8.33;;;4.40;99.90;;;;;;5123941;27;20226;-71
2021/12/03 20:09:20;;;;;;;9.70;8.27;;;4.40;99.90;;;;;;5116495;27;20232;-68